createdAt,value
2023-01-10T00:00:41.629Z,100394.16
2023-01-10T00:03:09.503Z,100394.16
2023-01-10T00:05:37.346Z,100405.47
2023-01-10T00:08:04.648Z,100409.03
2023-01-10T00:10:32.366Z,100417.88
2023-01-10T00:13:17.703Z,100414.34
2023-01-10T00:15:44.642Z,100424.16
2023-01-10T00:18:11.481Z,100419.47
2023-01-10T00:20:39.157Z,100423.50
2023-01-10T00:23:05.747Z,100432.19
2023-01-10T00:25:34.416Z,100424.22
2023-01-10T00:28:20.141Z,100426.75
2023-01-10T00:31:01.516Z,100435.63
2023-01-10T00:33:30.073Z,100436.59
2023-01-10T00:35:56.753Z,100433.75
2023-01-10T00:38:23.627Z,100442.28
2023-01-10T00:40:50.362Z,100445.63
2023-01-10T00:43:35.914Z,100447.25
2023-01-10T00:46:05.421Z,100452.53
2023-01-10T00:48:32.239Z,100451.69
2023-01-10T00:50:58.908Z,100447.16
2023-01-10T00:53:25.545Z,100459.16
2023-01-10T00:55:53.971Z,100457.16
2023-01-10T00:58:20.980Z,100459.50
2023-01-10T01:00:49.948Z,100474.66
2023-01-10T01:03:21.976Z,100484.88
2023-01-10T01:05:49.209Z,100477.00
2023-01-10T01:08:16.809Z,100486.63
2023-01-10T01:10:43.519Z,100492.91
2023-01-10T01:13:14.075Z,100489.41
2023-01-10T01:15:40.844Z,100489.41
2023-01-10T01:18:08.759Z,100489.59
2023-01-10T01:20:35.540Z,100498.78
2023-01-10T01:23:02.218Z,100494.47
2023-01-10T01:25:28.850Z,100501.75
2023-01-10T01:27:55.702Z,100505.06
2023-01-10T01:30:22.430Z,100514.56
2023-01-10T01:32:49.344Z,100516.84
2023-01-10T01:35:19.449Z,100535.09
2023-01-10T01:37:46.124Z,100539.75
2023-01-10T01:40:14.299Z,100536.75
2023-01-10T01:42:41.355Z,100546.25
2023-01-10T01:45:08.301Z,100543.75
2023-01-10T01:47:41.265Z,100556.16
2023-01-10T01:50:30.970Z,100551.88
2023-01-10T01:52:58.806Z,100552.59
2023-01-10T01:55:26.087Z,100553.41
2023-01-10T01:58:14.085Z,100557.81
2023-01-10T02:00:41.230Z,100557.72
2023-01-10T02:03:08.133Z,100573.78
2023-01-10T02:05:36.021Z,100576.47
2023-01-10T02:08:02.863Z,100575.56
2023-01-10T02:10:44.024Z,100594.13
2023-01-10T02:13:15.123Z,100591.53
2023-01-10T02:15:41.949Z,100598.91
2023-01-10T02:18:08.779Z,100601.31
2023-01-10T02:20:57.666Z,100597.25
2023-01-10T02:23:52.323Z,100609.59
2023-01-10T02:26:43.440Z,100613.59
2023-01-10T02:29:31.954Z,100602.91
2023-01-10T02:32:45.474Z,100610.03
2023-01-10T02:35:41.473Z,100607.63
2023-01-10T02:38:48.213Z,100614.53
2023-01-10T02:41:33.951Z,100627.34
2023-01-10T02:44:05.750Z,100626.44
2023-01-10T02:46:33.493Z,100622.00
2023-01-10T02:49:00.243Z,100621.16
2023-01-10T02:51:29.367Z,100627.84
2023-01-10T02:54:08.464Z,100624.47
2023-01-10T02:56:48.342Z,100635.97
2023-01-10T02:59:44.214Z,100637.78
2023-01-10T03:02:48.002Z,100650.38
2023-01-10T03:05:45.620Z,100656.47
2023-01-10T03:08:31.088Z,100660.56
2023-01-10T03:11:03.498Z,100675.94
2023-01-10T03:13:52.763Z,100677.72
2023-01-10T03:16:24.189Z,100679.25
2023-01-10T03:19:00.890Z,100681.00
2023-01-10T03:21:29.770Z,100688.88
2023-01-10T03:24:05.694Z,100694.25
2023-01-10T03:27:03.665Z,100700.19
2023-01-10T03:29:46.082Z,100704.69
2023-01-10T03:32:14.481Z,100711.09
2023-01-10T03:34:41.306Z,100718.09
2023-01-10T03:37:18.417Z,100718.72
2023-01-10T03:39:54.841Z,100729.47
2023-01-10T03:42:58.477Z,100732.06
2023-01-10T03:45:30.606Z,100743.47
2023-01-10T03:47:59.069Z,100758.44
2023-01-10T03:50:26.291Z,100761.88
2023-01-10T03:52:56.682Z,100765.44
2023-01-10T03:55:27.145Z,100761.25
2023-01-10T03:57:53.913Z,100766.38
2023-01-10T04:00:20.626Z,100768.31
2023-01-10T04:02:47.389Z,100783.44
2023-01-10T04:05:14.088Z,100784.13
2023-01-10T04:07:43.808Z,100794.72
2023-01-10T04:10:10.991Z,100786.66
2023-01-10T04:12:37.628Z,100807.31
2023-01-10T04:15:05.156Z,100800.91
2023-01-10T04:17:31.793Z,100806.34
2023-01-10T04:19:58.475Z,100818.84
2023-01-10T04:22:25.112Z,100819.72
2023-01-10T04:24:52.262Z,100817.13
2023-01-10T04:27:19.397Z,100826.31
2023-01-10T04:29:46.621Z,100837.66
2023-01-10T04:32:13.450Z,100838.25
2023-01-10T04:34:40.136Z,100844.66
2023-01-10T04:37:06.835Z,100841.16
2023-01-10T04:39:33.550Z,100844.53
2023-01-10T04:42:00.171Z,100850.06
2023-01-10T04:44:26.941Z,100858.91
2023-01-10T04:46:53.608Z,100868.06
2023-01-10T04:49:20.298Z,100871.50
2023-01-10T04:51:49.932Z,100872.50
2023-01-10T04:54:20.378Z,100880.63
2023-01-10T04:56:47.061Z,100896.34
2023-01-10T04:59:13.754Z,100893.75
2023-01-10T05:01:40.582Z,100903.41
2023-01-10T05:04:07.278Z,100905.00
2023-01-10T05:06:34.419Z,100904.09
2023-01-10T05:09:01.051Z,100911.13
2023-01-10T05:11:27.730Z,100920.84
2023-01-10T05:13:54.382Z,100927.03
2023-01-10T05:16:21.068Z,100927.88
2023-01-10T05:18:47.718Z,100933.22
2023-01-10T05:21:14.527Z,100937.53
2023-01-10T05:23:41.232Z,100944.69
2023-01-10T05:26:13.274Z,100955.41
2023-01-10T05:28:40.532Z,100956.16
2023-01-10T05:31:18.101Z,100962.31
2023-01-10T05:33:49.460Z,100965.88
2023-01-10T05:36:18.029Z,100954.53
2023-01-10T05:38:44.973Z,100977.50
2023-01-10T05:41:12.042Z,100974.69
2023-01-10T05:43:38.830Z,100979.91
2023-01-10T05:46:05.537Z,100984.19
2023-01-10T05:48:32.366Z,100987.84
2023-01-10T05:50:59.020Z,100986.09
2023-01-10T05:53:25.805Z,100990.63
2023-01-10T05:55:54.424Z,100989.72
2023-01-10T05:58:21.085Z,100996.41
2023-01-10T06:00:47.991Z,101002.19
2023-01-10T06:03:14.890Z,101003.06
2023-01-10T06:05:41.654Z,101012.53
2023-01-10T06:08:08.346Z,101026.88
2023-01-10T06:10:35.018Z,101029.19
2023-01-10T06:13:01.794Z,101040.56
2023-01-10T06:15:28.434Z,101042.50
2023-01-10T06:17:55.059Z,101053.63
2023-01-10T06:20:21.723Z,101050.28
2023-01-10T06:22:50.138Z,101053.56
2023-01-10T06:25:17.032Z,101058.91
2023-01-10T06:27:44.266Z,101059.66
2023-01-10T06:30:12.682Z,101070.00
2023-01-10T06:32:39.325Z,101075.78
2023-01-10T06:35:06.060Z,101082.78
2023-01-10T06:37:35.696Z,101091.63
2023-01-10T06:40:02.713Z,101091.56
2023-01-10T06:42:29.439Z,101088.84
2023-01-10T06:44:56.168Z,101099.31
2023-01-10T06:47:22.950Z,101106.03
2023-01-10T06:49:49.822Z,101113.88
2023-01-10T06:52:16.439Z,101118.13
2023-01-10T06:54:43.065Z,101125.19
2023-01-10T06:57:09.801Z,101124.31
2023-01-10T06:59:36.459Z,101130.47
2023-01-10T07:02:04.323Z,101139.13
2023-01-10T07:04:32.288Z,101150.06
2023-01-10T07:06:58.918Z,101149.94
2023-01-10T07:09:25.728Z,101148.94
2023-01-10T07:11:52.328Z,101154.28
2023-01-10T07:14:19.151Z,101150.63
2023-01-10T07:16:45.870Z,101157.59
2023-01-10T07:19:13.758Z,101156.81
2023-01-10T07:21:40.406Z,101159.34
2023-01-10T07:24:07.752Z,101166.75
2023-01-10T07:26:34.426Z,101177.38
2023-01-10T07:29:01.124Z,101179.94
2023-01-10T07:31:27.914Z,101179.94
2023-01-10T07:33:54.708Z,101195.75
2023-01-10T07:36:21.953Z,101197.56
2023-01-10T07:38:48.574Z,101202.03
2023-01-10T07:41:15.438Z,101200.63
2023-01-10T07:43:42.129Z,101210.34
2023-01-10T07:46:09.779Z,101208.34
2023-01-10T07:48:37.259Z,101213.69
2023-01-10T07:51:04.872Z,101224.31
2023-01-10T07:53:33.386Z,101235.78
2023-01-10T07:56:01.632Z,101240.13
2023-01-10T07:58:29.096Z,101240.13
2023-01-10T08:01:04.166Z,101247.22
2023-01-10T08:03:34.363Z,101249.81
2023-01-10T08:06:03.151Z,101251.75
2023-01-10T08:08:30.422Z,101250.75
2023-01-10T08:10:57.351Z,101251.47
2023-01-10T08:13:24.045Z,101264.09
2023-01-10T08:15:52.056Z,101261.41
2023-01-10T08:18:20.117Z,101269.13
2023-01-10T08:20:49.540Z,101274.47
2023-01-10T08:23:17.186Z,101281.44
2023-01-10T08:25:44.199Z,101285.00
2023-01-10T08:28:12.738Z,101286.75
2023-01-10T08:30:39.551Z,101289.44
2023-01-10T08:33:07.403Z,101289.72
2023-01-10T08:35:41.503Z,101292.09
2023-01-10T08:38:08.886Z,101298.41
2023-01-10T08:40:35.682Z,101300.91
2023-01-10T08:43:07.203Z,101306.31
2023-01-10T08:45:34.590Z,101299.19
2023-01-10T08:48:01.912Z,101305.38
2023-01-10T08:50:28.613Z,101313.41
2023-01-10T08:52:58.507Z,101311.41
2023-01-10T08:55:25.456Z,101318.31
2023-01-10T08:57:52.093Z,101320.78
2023-01-10T09:00:19.349Z,101328.78
2023-01-10T09:02:45.989Z,101341.09
2023-01-10T09:05:26.269Z,101335.09
2023-01-10T09:07:54.194Z,101342.75
2023-01-10T09:10:21.814Z,101349.00
2023-01-10T09:12:59.884Z,101356.13
2023-01-10T09:15:29.655Z,101354.56
2023-01-10T09:17:57.683Z,101363.41
2023-01-10T09:20:25.611Z,101361.50
2023-01-10T09:22:52.458Z,101362.19
2023-01-10T09:25:19.160Z,101359.38
2023-01-10T09:27:45.931Z,101357.78
2023-01-10T09:30:13.107Z,101371.03
2023-01-10T09:32:39.758Z,101370.13
2023-01-10T09:35:06.783Z,101371.75
2023-01-10T09:37:35.615Z,101367.22
2023-01-10T09:40:02.453Z,101370.72
2023-01-10T09:43:10.244Z,101364.44
2023-01-10T09:45:52.618Z,101379.97
2023-01-10T09:48:31.219Z,101391.34
2023-01-10T09:51:17.527Z,101386.78
2023-01-10T09:53:45.404Z,101396.47
2023-01-10T09:56:14.843Z,101384.88
2023-01-10T09:58:42.360Z,101388.28
2023-01-10T10:01:15.914Z,101390.19
2023-01-10T10:04:01.242Z,101384.75
2023-01-10T10:06:27.952Z,101382.00
2023-01-10T10:08:54.882Z,101385.34
2023-01-10T10:11:27.629Z,101381.13
2023-01-10T10:14:03.968Z,101382.56
2023-01-10T10:16:54.815Z,101382.72
2023-01-10T10:19:42.727Z,101387.63
2023-01-10T10:22:27.326Z,101388.13
2023-01-10T10:25:00.065Z,101385.38
2023-01-10T10:27:35.828Z,101388.00
2023-01-10T10:30:14.608Z,101395.13
2023-01-10T10:32:51.193Z,101400.44
2023-01-10T10:37:57.333Z,101403.34
2023-01-10T10:40:26.108Z,101404.72
2023-01-10T10:42:54.238Z,101409.91
2023-01-10T10:45:25.831Z,101414.09
2023-01-10T10:48:00.489Z,101409.44
2023-01-10T10:50:35.188Z,101402.88
2023-01-10T10:53:05.357Z,101414.28
2023-01-10T10:55:37.050Z,101411.63
2023-01-10T10:58:06.007Z,101427.44
2023-01-10T11:00:33.006Z,101434.47
2023-01-10T11:03:24.520Z,101426.72
2023-01-10T11:05:51.840Z,101430.78
2023-01-10T11:08:20.813Z,101424.88
2023-01-10T11:10:50.629Z,101423.72
2023-01-10T11:13:33.792Z,101414.69
2023-01-10T11:16:05.697Z,101403.94
2023-01-10T11:18:33.299Z,101405.38
2023-01-10T11:21:06.605Z,101414.03
2023-01-10T11:23:56.140Z,101419.06
2023-01-10T11:26:34.734Z,101421.81
2023-01-10T11:29:20.100Z,101421.84
2023-01-10T11:31:47.433Z,101418.44
2023-01-10T11:34:21.795Z,101415.69
2023-01-10T11:37:03.523Z,101419.31
2023-01-10T11:39:31.367Z,101430.84
2023-01-10T11:41:59.699Z,101439.03
2023-01-10T11:44:29.031Z,101430.91
2023-01-10T11:46:58.766Z,101433.34
2023-01-10T11:49:30.537Z,101440.53
2023-01-10T11:52:01.292Z,101443.84
2023-01-10T11:54:29.039Z,101446.25
2023-01-10T11:57:06.909Z,101452.38
2023-01-10T11:59:33.631Z,101438.09
2023-01-10T12:02:04.994Z,101441.78
2023-01-10T12:04:34.030Z,101433.47
2023-01-10T12:07:04.612Z,101439.78
2023-01-10T12:09:57.541Z,101435.03
2023-01-10T12:12:28.010Z,101442.13
2023-01-10T12:14:56.386Z,101443.75
2023-01-10T12:17:31.933Z,101439.25
2023-01-10T12:20:01.573Z,101440.72
2023-01-10T12:22:33.545Z,101445.84
2023-01-10T12:25:01.196Z,101444.16
2023-01-10T12:27:29.031Z,101447.88
2023-01-10T12:30:11.857Z,101447.66
2023-01-10T12:32:53.636Z,101448.50
2023-01-10T12:35:24.712Z,101451.97
2023-01-10T12:38:18.849Z,101449.06
2023-01-10T12:40:49.351Z,101457.97
2023-01-10T12:43:40.729Z,101463.09
2023-01-10T12:46:28.121Z,101461.34
2023-01-10T12:49:25.169Z,101473.22
2023-01-10T12:51:53.312Z,101471.41
2023-01-10T12:54:23.048Z,101484.72
2023-01-10T12:56:50.110Z,101485.00
2023-01-10T12:59:36.752Z,101492.03
2023-01-10T13:02:19.918Z,101488.50
2023-01-10T13:04:52.700Z,101496.28
2023-01-10T13:07:20.058Z,101497.00
2023-01-10T13:09:48.540Z,101512.81
2023-01-10T13:12:20.373Z,101515.75
2023-01-10T13:14:57.173Z,101514.78
2023-01-10T13:17:32.892Z,101523.47
2023-01-10T13:20:19.921Z,101518.78
2023-01-10T13:22:48.317Z,101522.28
2023-01-10T13:25:36.070Z,101512.69
2023-01-10T13:28:06.117Z,101509.81
2023-01-10T13:30:37.328Z,101517.91
2023-01-10T13:33:17.156Z,101516.00
2023-01-10T13:35:44.753Z,101517.66
2023-01-10T13:38:24.417Z,101515.81
2023-01-10T13:40:59.487Z,101522.91
2023-01-10T13:43:35.195Z,101515.84
2023-01-10T13:46:17.060Z,101519.34
2023-01-10T13:49:04.012Z,101516.75
2023-01-10T13:51:31.539Z,101513.97
2023-01-10T13:54:03.112Z,101523.75
2023-01-10T13:56:40.889Z,101529.75
2023-01-10T13:59:41.526Z,101516.31
2023-01-10T14:02:31.902Z,101527.03
2023-01-10T14:05:02.297Z,101527.84
2023-01-10T14:07:42.811Z,101533.28
2023-01-10T14:10:18.179Z,101533.28
2023-01-10T14:12:52.347Z,101530.75
2023-01-10T14:15:27.692Z,101531.78
2023-01-10T14:18:01.443Z,101529.19
2023-01-10T14:20:30.179Z,101537.06
2023-01-10T14:23:00.085Z,101540.78
2023-01-10T14:25:27.665Z,101541.81
2023-01-10T14:27:55.642Z,101532.91
2023-01-10T14:30:27.421Z,101539.16
2023-01-10T14:32:57.930Z,101535.63
2023-01-10T14:35:47.145Z,101530.38
2023-01-10T14:38:20.446Z,101537.41
2023-01-10T14:40:48.778Z,101532.34
2023-01-10T14:43:17.570Z,101531.31
2023-01-10T14:46:08.947Z,101526.00
2023-01-10T14:48:41.186Z,101531.44
2023-01-10T14:51:14.768Z,101533.34
2023-01-10T14:53:42.676Z,101539.59
2023-01-10T14:56:23.847Z,101536.00
2023-01-10T14:58:50.538Z,101540.38
2023-01-10T15:01:25.726Z,101545.66
2023-01-10T15:03:53.687Z,101538.50
2023-01-10T15:06:20.486Z,101535.13
2023-01-10T15:08:56.039Z,101535.13
2023-01-10T15:11:23.042Z,101539.47
2023-01-10T15:13:53.130Z,101527.94
2023-01-10T15:16:25.223Z,101527.16
2023-01-10T15:18:52.024Z,101528.03
2023-01-10T15:21:22.161Z,101530.69
2023-01-10T15:23:50.100Z,101528.88
2023-01-10T15:26:20.322Z,101537.78
2023-01-10T15:29:03.319Z,101535.16
2023-01-10T15:31:30.178Z,101537.88
2023-01-10T15:33:58.323Z,101536.94
2023-01-10T15:36:26.805Z,101541.41
2023-01-10T15:38:54.074Z,101536.19
2023-01-10T15:41:22.234Z,101525.66
2023-01-10T15:43:52.197Z,101539.78
2023-01-10T15:46:20.454Z,101549.47
2023-01-10T15:49:02.858Z,101542.38
2023-01-10T15:51:38.562Z,101538.75
2023-01-10T15:54:20.545Z,101543.34
2023-01-10T15:56:48.700Z,101548.91
2023-01-10T15:59:25.933Z,101551.50
2023-01-10T16:01:54.685Z,101546.06
2023-01-10T16:04:21.427Z,101546.91
2023-01-10T16:06:52.668Z,101539.81
2023-01-10T16:09:21.552Z,101540.81
2023-01-10T16:12:07.455Z,101534.59
2023-01-10T16:14:34.177Z,101547.00
2023-01-10T16:17:01.796Z,101545.31
2023-01-10T16:19:29.022Z,101538.41
2023-01-10T16:21:59.680Z,101533.03
2023-01-10T16:24:28.942Z,101525.94
2023-01-10T16:26:58.051Z,101530.38
2023-01-10T16:29:24.817Z,101527.81
2023-01-10T16:31:53.465Z,101521.50
2023-01-10T16:34:20.760Z,101523.56
2023-01-10T16:36:47.614Z,101524.66
2023-01-10T16:39:19.981Z,101532.53
2023-01-10T16:42:05.266Z,101530.84
2023-01-10T16:44:32.926Z,101531.69
2023-01-10T16:47:00.194Z,101534.25
2023-01-10T16:49:27.372Z,101535.19
2023-01-10T16:51:54.234Z,101539.66
2023-01-10T16:54:22.496Z,101541.44
2023-01-10T16:56:49.893Z,101544.19
2023-01-10T16:59:18.204Z,101539.03
2023-01-10T17:01:52.975Z,101543.34
2023-01-10T17:04:22.376Z,101544.19
2023-01-10T17:06:49.087Z,101533.78
2023-01-10T17:09:22.862Z,101540.75
2023-01-10T17:11:58.997Z,101532.81
2023-01-10T17:14:25.806Z,101540.13
2023-01-10T17:16:52.748Z,101533.00
2023-01-10T17:19:20.273Z,101533.94
2023-01-10T17:21:47.378Z,101529.59
2023-01-10T17:24:14.095Z,101533.94
2023-01-10T17:26:40.805Z,101535.75
2023-01-10T17:29:07.573Z,101534.91
2023-01-10T17:31:34.515Z,101531.28
2023-01-10T17:34:01.403Z,101531.28
2023-01-10T17:36:30.321Z,101537.47
2023-01-10T17:38:57.178Z,101543.66
2023-01-10T17:41:24.109Z,101545.56
2023-01-10T17:43:51.147Z,101547.31
2023-01-10T17:46:18.052Z,101548.34
2023-01-10T17:48:45.115Z,101544.69
2023-01-10T17:51:13.390Z,101541.22
2023-01-10T17:53:40.932Z,101540.31
2023-01-10T17:56:08.562Z,101534.91
2023-01-10T17:58:35.462Z,101540.31
2023-01-10T18:01:02.578Z,101530.66
2023-01-10T18:03:29.569Z,101538.56
2023-01-10T18:05:58.146Z,101532.38
2023-01-10T18:08:25.398Z,101528.81
2023-01-10T18:10:53.029Z,101531.56
2023-01-10T18:13:21.043Z,101536.03
2023-01-10T18:15:50.013Z,101537.00
2023-01-10T18:18:17.008Z,101530.81
2023-01-10T18:20:44.651Z,101535.28
2023-01-10T18:23:25.109Z,101527.25
2023-01-10T18:26:00.211Z,101525.47
2023-01-10T18:28:40.396Z,101525.56
2023-01-10T18:31:09.786Z,101533.53
2023-01-10T18:33:36.626Z,101535.22
2023-01-10T18:36:05.273Z,101515.88
2023-01-10T18:38:33.422Z,101521.25
2023-01-10T18:41:00.260Z,101529.16
2023-01-10T18:43:27.054Z,101518.53
2023-01-10T18:46:02.293Z,101517.69
2023-01-10T18:48:29.173Z,101519.44
2023-01-10T18:50:58.963Z,101517.69
2023-01-10T18:53:26.013Z,101514.16
2023-01-10T18:55:58.490Z,101515.94
2023-01-10T18:58:27.042Z,101506.19
2023-01-10T19:00:54.704Z,101508.94
2023-01-10T19:03:22.056Z,101504.53
2023-01-10T19:05:49.214Z,101504.78
2023-01-10T19:08:16.025Z,101501.09
2023-01-10T19:11:03.616Z,101495.75
2023-01-10T19:13:31.414Z,101488.72
2023-01-10T19:16:18.224Z,101488.81
2023-01-10T19:18:48.999Z,101488.00
2023-01-10T19:21:16.274Z,101491.53
2023-01-10T19:23:44.849Z,101490.63
2023-01-10T19:26:12.621Z,101495.88
2023-01-10T19:28:39.547Z,101485.34
2023-01-10T19:31:06.655Z,101483.59
2023-01-10T19:33:34.898Z,101476.47
2023-01-10T19:36:06.716Z,101467.75
2023-01-10T19:38:33.933Z,101478.31
2023-01-10T19:41:05.175Z,101479.16
2023-01-10T19:43:33.909Z,101471.31
2023-01-10T19:46:05.534Z,101474.81
2023-01-10T19:48:38.076Z,101466.94
2023-01-10T19:51:11.171Z,101465.13
2023-01-10T19:53:42.177Z,101456.28
2023-01-10T19:56:10.379Z,101457.22
2023-01-10T19:58:38.407Z,101453.66
2023-01-10T20:01:12.322Z,101447.47
2023-01-10T20:03:42.324Z,101443.94
2023-01-10T20:06:16.519Z,101458.06
2023-01-10T20:08:44.853Z,101454.63
2023-01-10T20:11:11.542Z,101443.25
2023-01-10T20:13:44.563Z,101445.00
2023-01-10T20:16:13.030Z,101436.13
2023-01-10T20:18:39.730Z,101440.50
2023-01-10T20:21:08.594Z,101438.78
2023-01-10T20:23:38.389Z,101435.28
2023-01-10T20:26:27.053Z,101433.63
2023-01-10T20:28:53.939Z,101437.03
2023-01-10T20:31:22.889Z,101436.16
2023-01-10T20:33:50.460Z,101429.13
2023-01-10T20:36:20.781Z,101436.16
2023-01-10T20:38:48.008Z,101423.09
2023-01-10T20:41:17.011Z,101415.91
2023-01-10T20:43:44.925Z,101415.00
2023-01-10T20:46:19.262Z,101417.69
2023-01-10T20:48:47.480Z,101420.34
2023-01-10T20:51:20.758Z,101423.84
2023-01-10T20:53:48.677Z,101424.75
2023-01-10T20:56:19.158Z,101410.63
2023-01-10T20:58:46.189Z,101418.56
2023-01-10T21:01:24.982Z,101401.00
2023-01-10T21:03:55.773Z,101400.19
2023-01-10T21:06:22.532Z,101404.59
2023-01-10T21:08:50.016Z,101409.06
2023-01-10T21:11:17.880Z,101401.94
2023-01-10T21:13:46.471Z,101407.22
2023-01-10T21:16:15.271Z,101397.56
2023-01-10T21:18:44.533Z,101398.44
2023-01-10T21:21:13.471Z,101401.09
2023-01-10T21:23:43.580Z,101404.66
2023-01-10T21:26:12.384Z,101394.16
2023-01-10T21:28:46.825Z,101383.53
2023-01-10T21:31:18.559Z,101386.09
2023-01-10T21:33:45.979Z,101387.03
2023-01-10T21:36:13.963Z,101385.25
2023-01-10T21:38:41.194Z,101371.09
2023-01-10T21:41:39.457Z,101361.38
2023-01-10T21:44:07.190Z,101363.16
2023-01-10T21:46:34.001Z,101369.34
2023-01-10T21:49:02.232Z,101353.53
2023-01-10T21:51:29.042Z,101353.56
2023-01-10T21:53:55.919Z,101345.63
2023-01-10T21:56:22.633Z,101346.53
2023-01-10T21:58:49.437Z,101346.47
2023-01-10T22:01:16.162Z,101346.50
2023-01-10T22:03:45.279Z,101346.50
2023-01-10T22:06:12.036Z,101344.72
2023-01-10T22:08:38.720Z,101333.22
2023-01-10T22:11:05.453Z,101326.28
2023-01-10T22:13:32.162Z,101335.94
2023-01-10T22:15:59.919Z,101336.78
2023-01-10T22:18:30.944Z,101337.63
2023-01-10T22:20:58.430Z,101335.00
2023-01-10T22:23:25.616Z,101320.97
2023-01-10T22:26:06.602Z,101327.97
2023-01-10T22:28:33.494Z,101317.44
2023-01-10T22:31:00.182Z,101313.81
2023-01-10T22:33:34.219Z,101312.06
2023-01-10T22:36:05.572Z,101308.50
2023-01-10T22:38:35.627Z,101299.66
2023-01-10T22:41:06.991Z,101304.13
2023-01-10T22:43:34.107Z,101303.16
2023-01-10T22:46:00.795Z,101298.78
2023-01-10T22:48:27.531Z,101287.31
2023-01-10T22:50:54.204Z,101301.47
2023-01-10T22:53:20.956Z,101289.13
2023-01-10T22:55:47.595Z,101281.19
2023-01-10T22:58:14.349Z,101274.19
2023-01-10T23:00:40.958Z,101287.41
2023-01-10T23:03:07.644Z,101271.59
2023-01-10T23:05:34.378Z,101259.19
2023-01-10T23:08:01.032Z,101264.44
2023-01-10T23:10:30.643Z,101263.50
2023-01-10T23:12:58.106Z,101264.34
2023-01-10T23:15:24.839Z,101258.31
2023-01-10T23:17:51.562Z,101254.75
2023-01-10T23:20:18.262Z,101262.63
2023-01-10T23:22:45.013Z,101254.69
2023-01-10T23:25:17.895Z,101259.09
2023-01-10T23:27:44.598Z,101253.00
2023-01-10T23:30:11.646Z,101248.59
2023-01-10T23:32:38.321Z,101240.66
2023-01-10T23:35:05.140Z,101240.59
2023-01-10T23:37:31.834Z,101232.59
2023-01-10T23:39:58.498Z,101230.03
2023-01-10T23:42:25.144Z,101229.09
2023-01-10T23:44:51.799Z,101219.47
2023-01-10T23:47:18.596Z,101215.81
2023-01-10T23:49:45.351Z,101209.69
2023-01-10T23:52:12.382Z,101201.72
2023-01-10T23:54:39.397Z,101202.63
2023-01-10T23:57:06.221Z,101196.44
2023-01-10T23:59:32.867Z,101199.13
